sensor_id;sensor_type;location;lat;lon;timestamp;P1;durP1;ratioP1;P2;durP2;ratioP2
41627;SDS011;27321;50.816;6.054;2022-11-11T00:02:28;2.17;;;0.70;;
41627;SDS011;27321;50.816;6.054;2022-11-11T00:06:06;1.63;;;0.73;;
41627;SDS011;27321;50.816;6.054;2022-11-11T00:09:53;1.40;;;0.97;;
41627;SDS011;27321;50.816;6.054;2022-11-11T00:13:33;2.20;;;0.87;;
41627;SDS011;27321;50.816;6.054;2022-11-11T00:18:05;3.10;;;0.80;;
41627;SDS011;27321;50.816;6.054;2022-11-11T00:21:47;1.17;;;0.70;;
41627;SDS011;27321;50.816;6.054;2022-11-11T00:25:29;1.90;;;0.70;;
41627;SDS011;27321;50.816;6.054;2022-11-11T00:28:52;2.17;;;0.90;;
41627;SDS011;27321;50.816;6.054;2022-11-11T00:36:15;2.93;;;1.00;;
41627;SDS011;27321;50.816;6.054;2022-11-11T00:39:46;3.47;;;1.00;;
41627;SDS011;27321;50.816;6.054;2022-11-11T00:43:16;1.83;;;0.90;;
41627;SDS011;27321;50.816;6.054;2022-11-11T00:46:36;1.53;;;0.93;;
41627;SDS011;27321;50.816;6.054;2022-11-11T00:50:19;2.53;;;1.00;;
41627;SDS011;27321;50.816;6.054;2022-11-11T00:54:05;2.50;;;0.90;;
41627;SDS011;27321;50.816;6.054;2022-11-11T00:58:01;1.10;;;1.00;;
41627;SDS011;27321;50.816;6.054;2022-11-11T01:01:24;2.10;;;0.90;;
41627;SDS011;27321;50.816;6.054;2022-11-11T01:10:46;1.00;;;0.80;;
41627;SDS011;27321;50.816;6.054;2022-11-11T01:14:07;1.90;;;0.90;;
41627;SDS011;27321;50.816;6.054;2022-11-11T01:17:27;2.63;;;1.10;;
41627;SDS011;27321;50.816;6.054;2022-11-11T01:20:55;2.83;;;0.90;;
41627;SDS011;27321;50.816;6.054;2022-11-11T01:24:16;2.83;;;1.13;;
41627;SDS011;27321;50.816;6.054;2022-11-11T01:27:36;2.83;;;1.00;;
41627;SDS011;27321;50.816;6.054;2022-11-11T01:31:00;1.33;;;0.80;;
41627;SDS011;27321;50.816;6.054;2022-11-11T01:34:26;3.67;;;0.80;;
41627;SDS011;27321;50.816;6.054;2022-11-11T01:38:02;4.00;;;0.97;;
41627;SDS011;27321;50.816;6.054;2022-11-11T01:41:28;1.87;;;0.70;;
41627;SDS011;27321;50.816;6.054;2022-11-11T01:44:59;1.20;;;0.63;;
41627;SDS011;27321;50.816;6.054;2022-11-11T01:53:33;2.27;;;1.10;;
41627;SDS011;27321;50.816;6.054;2022-11-11T02:07:29;1.97;;;1.00;;
41627;SDS011;27321;50.816;6.054;2022-11-11T02:27:29;1.47;;;0.80;;
41627;SDS011;27321;50.816;6.054;2022-11-11T02:31:12;1.73;;;0.80;;
41627;SDS011;27321;50.816;6.054;2022-11-11T02:35:38;1.60;;;0.77;;
41627;SDS011;27321;50.816;6.054;2022-11-11T02:40:05;2.00;;;0.80;;
41627;SDS011;27321;50.816;6.054;2022-11-11T02:55:15;1.33;;;0.70;;
41627;SDS011;27321;50.816;6.054;2022-11-11T03:04:34;4.87;;;0.97;;
41627;SDS011;27321;50.816;6.054;2022-11-11T03:20:30;2.80;;;0.60;;
41627;SDS011;27321;50.816;6.054;2022-11-11T03:33:40;2.53;;;0.70;;
41627;SDS011;27321;50.816;6.054;2022-11-11T03:40:56;1.50;;;0.60;;
41627;SDS011;27321;50.816;6.054;2022-11-11T03:44:45;0.70;;;0.52;;
41627;SDS011;27321;50.816;6.054;2022-11-11T03:48:33;1.27;;;0.40;;
41627;SDS011;27321;50.816;6.054;2022-11-11T03:57:32;0.93;;;0.63;;
41627;SDS011;27321;50.816;6.054;2022-11-11T04:02:01;0.93;;;0.50;;
41627;SDS011;27321;50.816;6.054;2022-11-11T04:10:33;2.28;;;0.55;;
41627;SDS011;27321;50.816;6.054;2022-11-11T04:14:09;0.70;;;0.60;;
41627;SDS011;27321;50.816;6.054;2022-11-11T04:18:08;2.53;;;0.60;;
41627;SDS011;27321;50.816;6.054;2022-11-11T04:27:13;1.90;;;0.63;;
41627;SDS011;27321;50.816;6.054;2022-11-11T04:30:39;0.70;;;0.40;;
41627;SDS011;27321;50.816;6.054;2022-11-11T04:33:59;0.60;;;0.50;;
41627;SDS011;27321;50.816;6.054;2022-11-11T04:37:19;1.63;;;0.40;;
41627;SDS011;27321;50.816;6.054;2022-11-11T04:40:40;1.00;;;0.50;;
41627;SDS011;27321;50.816;6.054;2022-11-11T04:44:18;0.40;;;0.40;;
41627;SDS011;27321;50.816;6.054;2022-11-11T04:51:27;0.57;;;0.50;;
41627;SDS011;27321;50.816;6.054;2022-11-11T05:20:47;3.30;;;0.60;;
41627;SDS011;27321;50.816;6.054;2022-11-11T05:24:27;0.70;;;0.50;;
41627;SDS011;27321;50.816;6.054;2022-11-11T05:28:05;1.83;;;0.50;;
41627;SDS011;27321;50.816;6.054;2022-11-11T05:31:24;0.87;;;0.50;;
41627;SDS011;27321;50.816;6.054;2022-11-11T05:34:45;2.67;;;0.50;;
41627;SDS011;27321;50.816;6.054;2022-11-11T05:38:04;0.70;;;0.43;;
41627;SDS011;27321;50.816;6.054;2022-11-11T05:41:39;0.67;;;0.40;;
41627;SDS011;27321;50.816;6.054;2022-11-11T05:44:58;0.70;;;0.63;;
41627;SDS011;27321;50.816;6.054;2022-11-11T05:48:18;0.63;;;0.43;;
41627;SDS011;27321;50.816;6.054;2022-11-11T05:51:38;1.37;;;0.63;;
41627;SDS011;27321;50.816;6.054;2022-11-11T05:54:58;1.20;;;0.70;;
41627;SDS011;27321;50.816;6.054;2022-11-11T05:58:18;0.93;;;0.53;;
41627;SDS011;27321;50.816;6.054;2022-11-11T06:01:38;1.33;;;0.70;;
41627;SDS011;27321;50.816;6.054;2022-11-11T06:04:58;0.50;;;0.50;;
41627;SDS011;27321;50.816;6.054;2022-11-11T06:08:18;0.90;;;0.63;;
41627;SDS011;27321;50.816;6.054;2022-11-11T06:11:38;1.90;;;0.50;;
41627;SDS011;27321;50.816;6.054;2022-11-11T06:14:58;0.50;;;0.50;;
41627;SDS011;27321;50.816;6.054;2022-11-11T06:18:18;1.47;;;1.00;;
41627;SDS011;27321;50.816;6.054;2022-11-11T06:21:38;0.87;;;0.63;;
41627;SDS011;27321;50.816;6.054;2022-11-11T06:25:16;1.03;;;0.50;;
41627;SDS011;27321;50.816;6.054;2022-11-11T06:28:54;1.13;;;0.57;;
41627;SDS011;27321;50.816;6.054;2022-11-11T06:32:15;1.10;;;0.40;;
41627;SDS011;27321;50.816;6.054;2022-11-11T06:35:35;1.13;;;0.50;;
41627;SDS011;27321;50.816;6.054;2022-11-11T06:42:16;0.70;;;0.50;;
41627;SDS011;27321;50.816;6.054;2022-11-11T06:45:36;0.67;;;0.40;;
41627;SDS011;27321;50.816;6.054;2022-11-11T06:48:56;0.80;;;0.57;;
41627;SDS011;27321;50.816;6.054;2022-11-11T06:52:16;1.10;;;0.60;;
41627;SDS011;27321;50.816;6.054;2022-11-11T06:55:36;0.80;;;0.50;;
41627;SDS011;27321;50.816;6.054;2022-11-11T06:58:56;1.97;;;0.70;;
41627;SDS011;27321;50.816;6.054;2022-11-11T07:02:16;1.03;;;0.70;;
41627;SDS011;27321;50.816;6.054;2022-11-11T07:05:36;2.50;;;0.80;;
41627;SDS011;27321;50.816;6.054;2022-11-11T07:08:55;0.93;;;0.70;;
41627;SDS011;27321;50.816;6.054;2022-11-11T07:12:15;1.23;;;0.40;;
41627;SDS011;27321;50.816;6.054;2022-11-11T07:15:35;1.13;;;0.40;;
41627;SDS011;27321;50.816;6.054;2022-11-11T07:18:56;0.80;;;0.50;;
41627;SDS011;27321;50.816;6.054;2022-11-11T07:22:17;1.10;;;0.47;;
41627;SDS011;27321;50.816;6.054;2022-11-11T07:25:36;1.07;;;0.50;;
41627;SDS011;27321;50.816;6.054;2022-11-11T07:28:56;1.23;;;0.70;;
41627;SDS011;27321;50.816;6.054;2022-11-11T07:32:16;1.57;;;0.40;;
41627;SDS011;27321;50.816;6.054;2022-11-11T07:35:36;0.67;;;0.47;;
41627;SDS011;27321;50.816;6.054;2022-11-11T07:38:55;1.10;;;0.40;;
41627;SDS011;27321;50.816;6.054;2022-11-11T07:42:15;0.90;;;0.47;;
41627;SDS011;27321;50.816;6.054;2022-11-11T07:45:35;1.47;;;0.50;;
41627;SDS011;27321;50.816;6.054;2022-11-11T07:48:54;0.57;;;0.57;;
41627;SDS011;27321;50.816;6.054;2022-11-11T07:52:14;1.80;;;0.60;;
41627;SDS011;27321;50.816;6.054;2022-11-11T07:55:34;1.20;;;0.80;;
41627;SDS011;27321;50.816;6.054;2022-11-11T07:58:54;0.70;;;0.60;;
41627;SDS011;27321;50.816;6.054;2022-11-11T08:02:13;0.90;;;0.57;;
41627;SDS011;27321;50.816;6.054;2022-11-11T08:05:33;0.53;;;0.53;;
41627;SDS011;27321;50.816;6.054;2022-11-11T08:08:53;1.80;;;0.70;;
41627;SDS011;27321;50.816;6.054;2022-11-11T08:12:12;1.77;;;0.60;;
41627;SDS011;27321;50.816;6.054;2022-11-11T08:15:51;1.20;;;0.60;;
41627;SDS011;27321;50.816;6.054;2022-11-11T08:19:11;0.97;;;0.40;;
41627;SDS011;27321;50.816;6.054;2022-11-11T08:22:35;1.03;;;0.50;;
41627;SDS011;27321;50.816;6.054;2022-11-11T08:25:56;1.27;;;0.63;;
41627;SDS011;27321;50.816;6.054;2022-11-11T08:29:22;1.50;;;0.63;;
41627;SDS011;27321;50.816;6.054;2022-11-11T08:32:42;1.20;;;0.80;;
41627;SDS011;27321;50.816;6.054;2022-11-11T08:36:02;0.93;;;0.40;;
41627;SDS011;27321;50.816;6.054;2022-11-11T08:39:23;1.50;;;0.82;;
41627;SDS011;27321;50.816;6.054;2022-11-11T08:42:43;0.60;;;0.60;;
41627;SDS011;27321;50.816;6.054;2022-11-11T08:46:03;1.00;;;0.70;;
41627;SDS011;27321;50.816;6.054;2022-11-11T08:49:24;0.80;;;0.60;;
41627;SDS011;27321;50.816;6.054;2022-11-11T08:52:50;0.90;;;0.70;;
41627;SDS011;27321;50.816;6.054;2022-11-11T08:56:10;0.87;;;0.73;;
41627;SDS011;27321;50.816;6.054;2022-11-11T08:59:30;1.13;;;0.60;;
41627;SDS011;27321;50.816;6.054;2022-11-11T09:02:50;1.07;;;0.67;;
41627;SDS011;27321;50.816;6.054;2022-11-11T09:06:10;2.87;;;0.80;;
41627;SDS011;27321;50.816;6.054;2022-11-11T09:09:30;0.60;;;0.53;;
41627;SDS011;27321;50.816;6.054;2022-11-11T09:12:54;0.57;;;0.57;;
41627;SDS011;27321;50.816;6.054;2022-11-11T09:16:15;0.97;;;0.60;;
41627;SDS011;27321;50.816;6.054;2022-11-11T09:19:34;2.17;;;0.67;;
41627;SDS011;27321;50.816;6.054;2022-11-11T09:22:54;0.60;;;0.50;;
41627;SDS011;27321;50.816;6.054;2022-11-11T09:26:15;3.13;;;0.70;;
41627;SDS011;27321;50.816;6.054;2022-11-11T09:29:35;1.57;;;0.80;;
41627;SDS011;27321;50.816;6.054;2022-11-11T09:33:00;1.03;;;0.50;;
41627;SDS011;27321;50.816;6.054;2022-11-11T09:36:21;1.43;;;0.77;;
41627;SDS011;27321;50.816;6.054;2022-11-11T09:39:40;1.90;;;0.53;;
41627;SDS011;27321;50.816;6.054;2022-11-11T09:47:20;0.67;;;0.47;;
41627;SDS011;27321;50.816;6.054;2022-11-11T09:50:43;1.00;;;0.73;;
41627;SDS011;27321;50.816;6.054;2022-11-11T09:54:15;0.90;;;0.47;;
41627;SDS011;27321;50.816;6.054;2022-11-11T09:58:31;2.27;;;0.70;;
41627;SDS011;27321;50.816;6.054;2022-11-11T10:05:46;1.03;;;0.80;;
41627;SDS011;27321;50.816;6.054;2022-11-11T10:09:23;1.30;;;0.60;;
41627;SDS011;27321;50.816;6.054;2022-11-11T10:12:55;1.47;;;0.70;;
41627;SDS011;27321;50.816;6.054;2022-11-11T10:20:22;1.73;;;0.60;;
41627;SDS011;27321;50.816;6.054;2022-11-11T10:23:47;0.60;;;0.50;;
41627;SDS011;27321;50.816;6.054;2022-11-11T10:27:13;1.70;;;0.50;;
41627;SDS011;27321;50.816;6.054;2022-11-11T10:30:38;0.63;;;0.50;;
41627;SDS011;27321;50.816;6.054;2022-11-11T10:33:59;1.03;;;0.50;;
41627;SDS011;27321;50.816;6.054;2022-11-11T10:37:36;1.67;;;0.63;;
41627;SDS011;27321;50.816;6.054;2022-11-11T10:41:48;1.48;;;0.65;;
41627;SDS011;27321;50.816;6.054;2022-11-11T10:44:48;2.10;;;0.75;;
41627;SDS011;27321;50.816;6.054;2022-11-11T10:48:16;0.57;;;0.50;;
41627;SDS011;27321;50.816;6.054;2022-11-11T10:55:34;1.10;;;0.70;;
41627;SDS011;27321;50.816;6.054;2022-11-11T11:03:11;3.47;;;0.77;;
41627;SDS011;27321;50.816;6.054;2022-11-11T11:06:45;2.23;;;0.70;;
41627;SDS011;27321;50.816;6.054;2022-11-11T11:10:17;1.47;;;0.70;;
41627;SDS011;27321;50.816;6.054;2022-11-11T11:14:04;1.13;;;0.60;;
41627;SDS011;27321;50.816;6.054;2022-11-11T11:17:38;0.90;;;0.65;;
41627;SDS011;27321;50.816;6.054;2022-11-11T11:21:18;0.75;;;0.60;;
41627;SDS011;27321;50.816;6.054;2022-11-11T11:24:37;0.60;;;0.60;;
41627;SDS011;27321;50.816;6.054;2022-11-11T11:28:08;1.58;;;0.88;;
41627;SDS011;27321;50.816;6.054;2022-11-11T11:31:34;0.77;;;0.52;;
41627;SDS011;27321;50.816;6.054;2022-11-11T11:34:58;1.20;;;0.57;;
41627;SDS011;27321;50.816;6.054;2022-11-11T11:38:18;1.63;;;0.80;;
41627;SDS011;27321;50.816;6.054;2022-11-11T11:41:39;0.82;;;0.55;;
41627;SDS011;27321;50.816;6.054;2022-11-11T11:45:14;0.65;;;0.52;;
41627;SDS011;27321;50.816;6.054;2022-11-11T11:53:03;1.65;;;0.55;;
41627;SDS011;27321;50.816;6.054;2022-11-11T11:56:35;2.13;;;0.70;;
41627;SDS011;27321;50.816;6.054;2022-11-11T12:00:22;0.75;;;0.60;;
41627;SDS011;27321;50.816;6.054;2022-11-11T12:11:40;0.70;;;0.60;;
41627;SDS011;27321;50.816;6.054;2022-11-11T12:15:27;1.23;;;0.52;;
41627;SDS011;27321;50.816;6.054;2022-11-11T12:22:40;1.15;;;0.70;;
41627;SDS011;27321;50.816;6.054;2022-11-11T12:34:05;0.73;;;0.70;;
41627;SDS011;27321;50.816;6.054;2022-11-11T12:46:15;0.73;;;0.60;;
41627;SDS011;27321;50.816;6.054;2022-11-11T12:50:57;0.80;;;0.50;;
41627;SDS011;27321;50.816;6.054;2022-11-11T12:54:16;1.00;;;0.60;;
41627;SDS011;27321;50.816;6.054;2022-11-11T12:58:07;1.40;;;0.63;;
41627;SDS011;27321;50.816;6.054;2022-11-11T13:05:35;1.98;;;0.77;;
41627;SDS011;27321;50.816;6.054;2022-11-11T13:09:36;1.13;;;0.65;;
41627;SDS011;27321;50.816;6.054;2022-11-11T13:16:38;0.88;;;0.57;;
41627;SDS011;27321;50.816;6.054;2022-11-11T13:20:06;0.68;;;0.60;;
41627;SDS011;27321;50.816;6.054;2022-11-11T13:23:55;0.85;;;0.70;;
41627;SDS011;27321;50.816;6.054;2022-11-11T13:27:17;0.90;;;0.70;;
41627;SDS011;27321;50.816;6.054;2022-11-11T13:30:49;1.25;;;0.73;;
41627;SDS011;27321;50.816;6.054;2022-11-11T13:34:41;0.60;;;0.60;;
41627;SDS011;27321;50.816;6.054;2022-11-11T13:38:02;0.65;;;0.50;;
41627;SDS011;27321;50.816;6.054;2022-11-11T13:44:54;0.98;;;0.65;;
41627;SDS011;27321;50.816;6.054;2022-11-11T13:48:25;0.80;;;0.60;;
41627;SDS011;27321;50.816;6.054;2022-11-11T13:52:04;1.30;;;0.70;;
41627;SDS011;27321;50.816;6.054;2022-11-11T13:55:42;0.85;;;0.68;;
41627;SDS011;27321;50.816;6.054;2022-11-11T13:59:25;0.60;;;0.50;;
41627;SDS011;27321;50.816;6.054;2022-11-11T14:02:50;0.70;;;0.50;;
41627;SDS011;27321;50.816;6.054;2022-11-11T14:10:06;1.42;;;0.45;;
41627;SDS011;27321;50.816;6.054;2022-11-11T14:24:02;0.63;;;0.50;;
41627;SDS011;27321;50.816;6.054;2022-11-11T14:27:28;0.80;;;0.73;;
41627;SDS011;27321;50.816;6.054;2022-11-11T14:30:50;0.45;;;0.45;;
41627;SDS011;27321;50.816;6.054;2022-11-11T14:34:23;0.50;;;0.40;;
41627;SDS011;27321;50.816;6.054;2022-11-11T14:38:14;1.15;;;0.60;;
41627;SDS011;27321;50.816;6.054;2022-11-11T14:42:00;0.85;;;0.65;;
41627;SDS011;27321;50.816;6.054;2022-11-11T14:48:51;0.88;;;0.70;;
41627;SDS011;27321;50.816;6.054;2022-11-11T14:56:00;0.98;;;0.60;;
41627;SDS011;27321;50.816;6.054;2022-11-11T14:59:20;0.73;;;0.70;;
41627;SDS011;27321;50.816;6.054;2022-11-11T15:02:48;1.38;;;0.70;;
41627;SDS011;27321;50.816;6.054;2022-11-11T15:06:33;2.13;;;0.90;;
41627;SDS011;27321;50.816;6.054;2022-11-11T15:10:53;1.10;;;0.93;;
41627;SDS011;27321;50.816;6.054;2022-11-11T15:17:51;1.00;;;0.85;;
41627;SDS011;27321;50.816;6.054;2022-11-11T15:33:55;0.97;;;0.73;;
41627;SDS011;27321;50.816;6.054;2022-11-11T15:37:45;0.93;;;0.80;;
41627;SDS011;27321;50.816;6.054;2022-11-11T15:41:25;1.20;;;1.00;;
41627;SDS011;27321;50.816;6.054;2022-11-11T15:44:56;1.07;;;0.97;;
41627;SDS011;27321;50.816;6.054;2022-11-11T15:48:26;1.53;;;0.80;;
41627;SDS011;27321;50.816;6.054;2022-11-11T15:51:56;2.03;;;0.87;;
41627;SDS011;27321;50.816;6.054;2022-11-11T15:55:21;1.90;;;1.20;;
41627;SDS011;27321;50.816;6.054;2022-11-11T15:58:44;1.83;;;0.70;;
41627;SDS011;27321;50.816;6.054;2022-11-11T16:02:11;1.53;;;1.00;;
41627;SDS011;27321;50.816;6.054;2022-11-11T16:05:37;1.73;;;0.80;;
41627;SDS011;27321;50.816;6.054;2022-11-11T16:09:01;2.93;;;1.00;;
41627;SDS011;27321;50.816;6.054;2022-11-11T16:12:23;3.63;;;1.10;;
41627;SDS011;27321;50.816;6.054;2022-11-11T16:16:13;2.17;;;1.17;;
41627;SDS011;27321;50.816;6.054;2022-11-11T16:50:54;4.70;;;1.50;;
41627;SDS011;27321;50.816;6.054;2022-11-11T16:54:21;1.20;;;1.10;;
41627;SDS011;27321;50.816;6.054;2022-11-11T16:57:46;3.20;;;1.47;;
41627;SDS011;27321;50.816;6.054;2022-11-11T17:01:08;2.40;;;1.60;;
41627;SDS011;27321;50.816;6.054;2022-11-11T17:04:50;3.20;;;1.83;;
41627;SDS011;27321;50.816;6.054;2022-11-11T17:08:29;4.20;;;1.67;;
41627;SDS011;27321;50.816;6.054;2022-11-11T17:12:02;2.60;;;1.70;;
41627;SDS011;27321;50.816;6.054;2022-11-11T17:15:23;2.77;;;1.80;;
41627;SDS011;27321;50.816;6.054;2022-11-11T17:18:43;4.57;;;1.70;;
41627;SDS011;27321;50.816;6.054;2022-11-11T17:22:06;2.80;;;1.80;;
41627;SDS011;27321;50.816;6.054;2022-11-11T17:25:28;2.77;;;1.77;;
41627;SDS011;27321;50.816;6.054;2022-11-11T17:28:48;3.50;;;1.90;;
41627;SDS011;27321;50.816;6.054;2022-11-11T17:32:08;2.77;;;1.60;;
41627;SDS011;27321;50.816;6.054;2022-11-11T17:35:30;1.90;;;1.50;;
41627;SDS011;27321;50.816;6.054;2022-11-11T17:38:49;2.40;;;1.70;;
41627;SDS011;27321;50.816;6.054;2022-11-11T17:42:13;2.83;;;2.10;;
41627;SDS011;27321;50.816;6.054;2022-11-11T17:45:33;3.20;;;1.90;;
41627;SDS011;27321;50.816;6.054;2022-11-11T17:48:54;3.57;;;2.43;;
41627;SDS011;27321;50.816;6.054;2022-11-11T17:52:18;3.75;;;2.40;;
41627;SDS011;27321;50.816;6.054;2022-11-11T17:55:38;5.20;;;2.60;;
41627;SDS011;27321;50.816;6.054;2022-11-11T17:58:57;6.20;;;3.10;;
41627;SDS011;27321;50.816;6.054;2022-11-11T18:02:17;8.87;;;4.10;;
41627;SDS011;27321;50.816;6.054;2022-11-11T18:05:38;6.50;;;3.80;;
41627;SDS011;27321;50.816;6.054;2022-11-11T18:08:57;7.10;;;3.77;;
41627;SDS011;27321;50.816;6.054;2022-11-11T18:12:17;5.37;;;3.33;;
41627;SDS011;27321;50.816;6.054;2022-11-11T18:15:37;5.20;;;3.50;;
41627;SDS011;27321;50.816;6.054;2022-11-11T18:18:56;6.20;;;3.63;;
41627;SDS011;27321;50.816;6.054;2022-11-11T18:22:19;4.67;;;3.47;;
41627;SDS011;27321;50.816;6.054;2022-11-11T18:25:44;5.07;;;3.37;;
41627;SDS011;27321;50.816;6.054;2022-11-11T18:29:05;5.07;;;3.70;;
41627;SDS011;27321;50.816;6.054;2022-11-11T18:32:29;6.60;;;3.93;;
41627;SDS011;27321;50.816;6.054;2022-11-11T18:35:48;5.00;;;3.90;;
41627;SDS011;27321;50.816;6.054;2022-11-11T18:39:11;4.93;;;3.70;;
41627;SDS011;27321;50.816;6.054;2022-11-11T18:42:31;5.20;;;3.63;;
41627;SDS011;27321;50.816;6.054;2022-11-11T18:45:51;6.27;;;3.53;;
41627;SDS011;27321;50.816;6.054;2022-11-11T18:49:11;4.53;;;3.67;;
41627;SDS011;27321;50.816;6.054;2022-11-11T18:52:32;5.07;;;3.97;;
41627;SDS011;27321;50.816;6.054;2022-11-11T18:55:52;8.27;;;5.47;;
41627;SDS011;27321;50.816;6.054;2022-11-11T18:59:11;20.90;;;10.97;;
41627;SDS011;27321;50.816;6.054;2022-11-11T19:02:31;18.87;;;9.80;;
41627;SDS011;27321;50.816;6.054;2022-11-11T19:05:51;11.23;;;6.17;;
41627;SDS011;27321;50.816;6.054;2022-11-11T19:09:12;5.93;;;5.03;;
41627;SDS011;27321;50.816;6.054;2022-11-11T19:12:34;6.33;;;4.57;;
41627;SDS011;27321;50.816;6.054;2022-11-11T19:15:55;7.03;;;4.50;;
41627;SDS011;27321;50.816;6.054;2022-11-11T19:19:22;8.50;;;3.83;;
41627;SDS011;27321;50.816;6.054;2022-11-11T19:22:42;9.63;;;4.73;;
41627;SDS011;27321;50.816;6.054;2022-11-11T19:26:02;7.57;;;5.07;;
41627;SDS011;27321;50.816;6.054;2022-11-11T19:29:23;5.97;;;4.27;;
41627;SDS011;27321;50.816;6.054;2022-11-11T19:32:45;7.23;;;5.20;;
41627;SDS011;27321;50.816;6.054;2022-11-11T19:36:14;8.57;;;4.67;;
41627;SDS011;27321;50.816;6.054;2022-11-11T19:39:43;6.80;;;4.67;;
41627;SDS011;27321;50.816;6.054;2022-11-11T19:43:07;7.23;;;5.10;;
41627;SDS011;27321;50.816;6.054;2022-11-11T19:46:31;8.97;;;5.10;;
41627;SDS011;27321;50.816;6.054;2022-11-11T19:49:54;8.83;;;5.50;;
41627;SDS011;27321;50.816;6.054;2022-11-11T19:53:14;9.47;;;5.47;;
41627;SDS011;27321;50.816;6.054;2022-11-11T19:56:36;9.77;;;6.07;;
41627;SDS011;27321;50.816;6.054;2022-11-11T19:59:57;10.57;;;5.60;;
41627;SDS011;27321;50.816;6.054;2022-11-11T20:03:18;9.77;;;5.28;;
41627;SDS011;27321;50.816;6.054;2022-11-11T20:06:38;8.47;;;4.67;;
41627;SDS011;27321;50.816;6.054;2022-11-11T20:09:59;9.90;;;5.10;;
41627;SDS011;27321;50.816;6.054;2022-11-11T20:13:25;6.97;;;4.50;;
41627;SDS011;27321;50.816;6.054;2022-11-11T20:16:46;7.43;;;4.20;;
41627;SDS011;27321;50.816;6.054;2022-11-11T20:20:14;8.10;;;4.13;;
41627;SDS011;27321;50.816;6.054;2022-11-11T20:23:37;8.67;;;4.13;;
41627;SDS011;27321;50.816;6.054;2022-11-11T20:26:59;7.10;;;4.10;;
41627;SDS011;27321;50.816;6.054;2022-11-11T20:30:24;7.43;;;4.50;;
41627;SDS011;27321;50.816;6.054;2022-11-11T20:34:22;9.13;;;4.80;;
41627;SDS011;27321;50.816;6.054;2022-11-11T20:38:05;9.30;;;5.60;;
41627;SDS011;27321;50.816;6.054;2022-11-11T20:41:27;10.00;;;6.07;;
41627;SDS011;27321;50.816;6.054;2022-11-11T20:44:47;10.77;;;6.20;;
41627;SDS011;27321;50.816;6.054;2022-11-11T20:48:07;11.27;;;7.17;;
41627;SDS011;27321;50.816;6.054;2022-11-11T20:51:30;11.97;;;6.93;;
41627;SDS011;27321;50.816;6.054;2022-11-11T20:54:53;11.57;;;7.27;;
41627;SDS011;27321;50.816;6.054;2022-11-11T20:58:14;14.40;;;7.50;;
41627;SDS011;27321;50.816;6.054;2022-11-11T21:01:34;11.60;;;7.83;;
41627;SDS011;27321;50.816;6.054;2022-11-11T21:04:56;13.40;;;7.53;;
41627;SDS011;27321;50.816;6.054;2022-11-11T21:08:18;11.03;;;6.77;;
41627;SDS011;27321;50.816;6.054;2022-11-11T21:11:37;11.87;;;7.07;;
41627;SDS011;27321;50.816;6.054;2022-11-11T21:14:57;10.97;;;6.97;;
41627;SDS011;27321;50.816;6.054;2022-11-11T21:18:52;11.02;;;7.25;;
41627;SDS011;27321;50.816;6.054;2022-11-11T21:22:43;11.93;;;6.43;;
41627;SDS011;27321;50.816;6.054;2022-11-11T21:26:05;9.98;;;6.70;;
41627;SDS011;27321;50.816;6.054;2022-11-11T21:29:37;12.83;;;6.67;;
41627;SDS011;27321;50.816;6.054;2022-11-11T21:33:22;12.30;;;7.03;;
41627;SDS011;27321;50.816;6.054;2022-11-11T21:37:23;10.20;;;6.40;;
41627;SDS011;27321;50.816;6.054;2022-11-11T21:41:39;11.17;;;7.17;;
41627;SDS011;27321;50.816;6.054;2022-11-11T21:45:45;13.43;;;8.23;;
41627;SDS011;27321;50.816;6.054;2022-11-11T21:49:53;16.00;;;8.97;;
41627;SDS011;27321;50.816;6.054;2022-11-11T21:59:01;11.90;;;6.83;;
41627;SDS011;27321;50.816;6.054;2022-11-11T22:07:37;13.32;;;7.05;;
41627;SDS011;27321;50.816;6.054;2022-11-11T22:11:13;10.57;;;6.57;;
41627;SDS011;27321;50.816;6.054;2022-11-11T22:14:42;10.50;;;6.70;;
41627;SDS011;27321;50.816;6.054;2022-11-11T22:18:05;11.17;;;7.00;;
41627;SDS011;27321;50.816;6.054;2022-11-11T22:21:29;9.63;;;6.10;;
41627;SDS011;27321;50.816;6.054;2022-11-11T22:29:06;11.30;;;6.07;;
41627;SDS011;27321;50.816;6.054;2022-11-11T22:32:45;11.20;;;6.73;;
41627;SDS011;27321;50.816;6.054;2022-11-11T22:36:17;8.90;;;5.93;;
41627;SDS011;27321;50.816;6.054;2022-11-11T22:39:38;9.43;;;5.77;;
41627;SDS011;27321;50.816;6.054;2022-11-11T22:42:58;9.13;;;5.53;;
41627;SDS011;27321;50.816;6.054;2022-11-11T22:46:19;10.20;;;5.60;;
41627;SDS011;27321;50.816;6.054;2022-11-11T22:53:00;7.83;;;5.57;;
41627;SDS011;27321;50.816;6.054;2022-11-11T22:56:25;9.43;;;5.23;;
41627;SDS011;27321;50.816;6.054;2022-11-11T22:59:50;6.00;;;5.07;;
41627;SDS011;27321;50.816;6.054;2022-11-11T23:03:10;7.93;;;5.10;;
41627;SDS011;27321;50.816;6.054;2022-11-11T23:06:34;7.97;;;4.77;;
41627;SDS011;27321;50.816;6.054;2022-11-11T23:09:55;7.00;;;4.90;;
41627;SDS011;27321;50.816;6.054;2022-11-11T23:13:15;6.83;;;4.77;;
41627;SDS011;27321;50.816;6.054;2022-11-11T23:16:35;6.67;;;4.50;;
41627;SDS011;27321;50.816;6.054;2022-11-11T23:19:55;7.03;;;4.70;;
41627;SDS011;27321;50.816;6.054;2022-11-11T23:23:14;7.53;;;5.10;;
41627;SDS011;27321;50.816;6.054;2022-11-11T23:26:35;6.60;;;4.10;;
41627;SDS011;27321;50.816;6.054;2022-11-11T23:29:55;6.17;;;4.27;;
41627;SDS011;27321;50.816;6.054;2022-11-11T23:33:14;6.30;;;4.40;;
41627;SDS011;27321;50.816;6.054;2022-11-11T23:36:34;4.70;;;3.60;;
41627;SDS011;27321;50.816;6.054;2022-11-11T23:39:54;5.70;;;3.27;;
41627;SDS011;27321;50.816;6.054;2022-11-11T23:43:14;5.60;;;3.70;;
41627;SDS011;27321;50.816;6.054;2022-11-11T23:46:34;5.60;;;3.63;;
41627;SDS011;27321;50.816;6.054;2022-11-11T23:49:54;5.27;;;3.47;;
41627;SDS011;27321;50.816;6.054;2022-11-11T23:53:14;4.70;;;3.27;;
41627;SDS011;27321;50.816;6.054;2022-11-11T23:56:35;3.90;;;2.53;;
41627;SDS011;27321;50.816;6.054;2022-11-11T23:59:55;3.87;;;2.50;;
